createdAt,value
2018-02-10T00:01:50.959Z,22.95
2018-02-10T00:04:18.415Z,25.62
2018-02-10T00:06:45.859Z,24.50
2018-02-10T00:09:14.083Z,26.73
2018-02-10T00:11:41.588Z,24.57
2018-02-10T00:14:08.995Z,24.00
2018-02-10T00:16:36.423Z,24.97
2018-02-10T00:19:03.863Z,26.47
2018-02-10T00:21:32.074Z,27.50
2018-02-10T00:23:59.599Z,25.83
2018-02-10T00:26:27.045Z,27.40
2018-02-10T00:28:54.474Z,41.77
2018-02-10T00:31:21.919Z,27.40
2018-02-10T00:33:49.375Z,27.70
2018-02-10T00:36:16.813Z,28.17
2018-02-10T00:38:44.269Z,27.73
2018-02-10T00:41:11.697Z,29.43
2018-02-10T00:43:39.143Z,42.88
2018-02-10T00:46:07.354Z,26.93
2018-02-10T00:48:34.791Z,31.03
2018-02-10T00:51:02.243Z,28.58
2018-02-10T00:53:29.691Z,31.90
2018-02-10T00:55:57.140Z,31.47
2018-02-10T00:58:24.600Z,30.65
2018-02-10T01:00:52.057Z,47.00
2018-02-10T01:03:19.563Z,32.80
2018-02-10T01:05:47.012Z,32.03
2018-02-10T01:08:14.461Z,30.23
2018-02-10T01:10:41.887Z,31.27
2018-02-10T01:13:10.104Z,31.95
2018-02-10T01:15:37.561Z,30.13
2018-02-10T01:18:05.023Z,35.70
2018-02-10T01:20:32.459Z,30.30
2018-02-10T01:23:00.040Z,32.45
2018-02-10T01:25:27.457Z,32.80
2018-02-10T01:27:54.911Z,30.90
2018-02-10T01:30:23.114Z,33.63
2018-02-10T01:32:50.581Z,29.35
2018-02-10T01:35:18.015Z,31.40
2018-02-10T01:37:45.475Z,50.60
2018-02-10T01:40:12.912Z,32.10
2018-02-10T01:42:40.384Z,31.70
2018-02-10T01:45:07.831Z,32.58
2018-02-10T01:47:35.280Z,49.03
2018-02-10T01:50:15.167Z,31.37
2018-02-10T01:52:42.794Z,32.20
2018-02-10T01:55:10.245Z,51.03
2018-02-10T01:57:38.465Z,32.60
2018-02-10T02:00:05.903Z,31.15
2018-02-10T02:02:33.351Z,32.60
2018-02-10T02:05:00.779Z,33.90
2018-02-10T02:07:28.274Z,33.10
2018-02-10T02:09:55.710Z,33.17
2018-02-10T02:12:23.930Z,32.00
2018-02-10T02:14:51.454Z,49.88
2018-02-10T02:17:18.904Z,34.57
2018-02-10T02:19:46.337Z,32.88
2018-02-10T02:22:13.792Z,54.78
2018-02-10T02:24:41.239Z,35.97
2018-02-10T02:27:08.715Z,31.15
2018-02-10T02:29:36.143Z,32.50
2018-02-10T02:32:03.606Z,33.97
2018-02-10T02:34:31.075Z,30.90
2018-02-10T02:36:58.522Z,33.50
2018-02-10T02:39:25.953Z,32.05
2018-02-10T02:41:53.411Z,30.02
2018-02-10T02:44:20.847Z,32.95
2018-02-10T02:46:48.300Z,34.65
2018-02-10T02:49:15.764Z,31.55
2018-02-10T02:51:43.200Z,32.22
2018-02-10T02:54:10.667Z,37.55
2018-02-10T02:56:38.240Z,34.35
2018-02-10T02:59:05.683Z,32.40
2018-02-10T03:01:33.122Z,32.28
2018-02-10T03:04:00.577Z,35.00
2018-02-10T03:06:28.028Z,48.83
2018-02-10T03:08:55.486Z,33.70
2018-02-10T03:11:22.932Z,32.38
2018-02-10T03:13:50.370Z,29.52
2018-02-10T03:16:17.825Z,31.33
2018-02-10T03:18:46.250Z,47.65
2018-02-10T03:21:13.695Z,32.67
2018-02-10T03:23:41.139Z,30.85
2018-02-10T03:26:08.590Z,32.20
2018-02-10T03:28:36.030Z,29.97
2018-02-10T03:31:03.489Z,36.10
2018-02-10T03:33:30.932Z,32.80
2018-02-10T03:35:58.375Z,32.30
2018-02-10T03:38:25.815Z,34.30
2018-02-10T03:40:53.367Z,28.67
2018-02-10T03:43:20.822Z,33.05
2018-02-10T03:45:48.256Z,34.10
2018-02-10T03:48:15.699Z,27.20
2018-02-10T03:50:43.155Z,30.48
2018-02-10T03:53:10.616Z,31.55
2018-02-10T03:55:38.056Z,31.33
2018-02-10T03:58:05.786Z,32.38
2018-02-10T04:00:33.227Z,30.17
2018-02-10T04:03:01.467Z,31.42
2018-02-10T04:05:28.901Z,31.12
2018-02-10T04:07:56.335Z,30.40
2018-02-10T04:10:23.810Z,30.15
2018-02-10T04:12:51.247Z,27.40
2018-02-10T04:15:18.710Z,29.92
2018-02-10T04:17:46.140Z,32.22
2018-02-10T04:20:13.598Z,29.12
2018-02-10T04:22:41.037Z,48.53
2018-02-10T04:25:08.533Z,32.42
2018-02-10T04:27:35.970Z,29.65
2018-02-10T04:30:03.429Z,27.80
2018-02-10T04:32:30.851Z,29.23
2018-02-10T04:34:58.311Z,31.05
2018-02-10T04:37:25.758Z,30.83
2018-02-10T04:39:53.215Z,31.75
2018-02-10T04:42:20.664Z,36.25
2018-02-10T04:44:48.092Z,29.97
2018-02-10T04:47:15.689Z,52.13
2018-02-10T04:49:43.134Z,34.85
2018-02-10T04:52:10.590Z,31.63
2018-02-10T04:54:38.059Z,28.40
2018-02-10T04:57:05.503Z,28.27
2018-02-10T04:59:32.939Z,29.85
2018-02-10T05:02:00.399Z,29.23
2018-02-10T05:04:27.855Z,29.20
2018-02-10T05:06:55.291Z,29.48
2018-02-10T05:09:23.684Z,29.83
2018-02-10T05:11:51.120Z,31.10
2018-02-10T05:14:18.587Z,27.30
2018-02-10T05:16:46.019Z,29.40
2018-02-10T05:19:13.445Z,28.37
2018-02-10T05:21:40.891Z,26.90
2018-02-10T05:24:08.344Z,29.30
2018-02-10T05:26:35.792Z,29.98
2018-02-10T05:29:03.252Z,27.93
2018-02-10T05:31:30.786Z,31.37
2018-02-10T05:33:58.224Z,39.97
2018-02-10T05:36:25.671Z,43.30
2018-02-10T05:38:53.107Z,26.12
2018-02-10T05:41:20.563Z,30.63
2018-02-10T05:43:48.019Z,28.48
2018-02-10T05:46:15.470Z,25.33
2018-02-10T05:48:42.911Z,27.43
2018-02-10T05:51:10.355Z,27.40
2018-02-10T05:53:37.907Z,28.85
2018-02-10T05:56:05.339Z,24.90
2018-02-10T05:58:32.790Z,25.60
2018-02-10T06:01:00.215Z,27.47
2018-02-10T06:03:27.665Z,28.13
2018-02-10T06:05:55.098Z,28.08
2018-02-10T06:08:22.547Z,27.65
2018-02-10T06:10:49.990Z,26.30
2018-02-10T06:13:18.215Z,26.62
2018-02-10T06:15:45.662Z,30.43
2018-02-10T06:18:13.140Z,24.60
2018-02-10T06:20:40.635Z,28.93
2018-02-10T06:23:08.051Z,26.90
2018-02-10T06:25:35.494Z,27.55
2018-02-10T06:28:02.952Z,25.35
2018-02-10T06:30:30.386Z,26.08
2018-02-10T06:32:57.840Z,26.08
2018-02-10T06:35:25.274Z,22.10
2018-02-10T06:37:52.727Z,25.20
2018-02-10T06:40:20.151Z,26.00
2018-02-10T06:42:47.599Z,26.70
2018-02-10T06:45:15.039Z,24.52
2018-02-10T06:47:42.502Z,25.98
2018-02-10T06:50:09.928Z,25.00
2018-02-10T06:52:38.137Z,27.57
2018-02-10T06:55:05.594Z,27.40
2018-02-10T06:57:33.026Z,27.92
2018-02-10T07:00:00.462Z,27.60
2018-02-10T07:02:27.919Z,25.03
2018-02-10T07:04:55.347Z,25.50
2018-02-10T07:07:22.782Z,26.43
2018-02-10T07:09:50.235Z,27.67
2018-02-10T07:12:17.675Z,26.35
2018-02-10T07:14:45.127Z,26.13
2018-02-10T07:17:12.558Z,28.80
2018-02-10T07:19:40.771Z,26.13
2018-02-10T07:22:08.219Z,26.20
2018-02-10T07:24:35.695Z,25.90
2018-02-10T07:27:03.159Z,25.33
2018-02-10T07:29:30.591Z,25.60
2018-02-10T07:31:58.051Z,27.10
2018-02-10T07:34:25.475Z,26.43
2018-02-10T07:36:52.915Z,24.20
2018-02-10T07:39:20.354Z,27.43
2018-02-10T07:41:47.856Z,25.13
2018-02-10T07:44:15.326Z,26.27
2018-02-10T07:46:42.738Z,24.43
2018-02-10T07:49:10.194Z,23.98
2018-02-10T07:51:37.633Z,23.75
2018-02-10T07:54:05.091Z,25.52
2018-02-10T07:56:32.536Z,25.33
2018-02-10T07:58:59.998Z,23.38
2018-02-10T08:01:27.454Z,26.52
2018-02-10T08:03:54.955Z,25.77
2018-02-10T08:06:22.391Z,24.53
2018-02-10T08:08:49.847Z,24.77
2018-02-10T08:11:17.279Z,25.90
2018-02-10T08:13:44.736Z,25.40
2018-02-10T08:16:12.177Z,36.47
2018-02-10T08:18:39.632Z,23.60
2018-02-10T08:21:07.090Z,26.02
2018-02-10T08:23:34.543Z,24.17
2018-02-10T08:26:02.084Z,25.00
2018-02-10T08:28:29.528Z,25.17
2018-02-10T08:30:56.994Z,24.12
2018-02-10T08:33:24.422Z,24.43
2018-02-10T08:35:51.855Z,22.83
2018-02-10T08:38:19.308Z,23.53
2018-02-10T08:40:46.765Z,24.63
2018-02-10T08:43:14.209Z,25.30
2018-02-10T08:45:41.649Z,23.37
2018-02-10T08:48:09.211Z,23.40
2018-02-10T08:50:36.676Z,22.23
2018-02-10T08:53:04.110Z,35.33
2018-02-10T08:55:32.312Z,23.27
2018-02-10T08:57:59.754Z,34.60
2018-02-10T09:00:27.209Z,32.80
2018-02-10T09:02:55.403Z,21.83
2018-02-10T09:05:22.860Z,24.33
2018-02-10T09:07:50.309Z,23.80
2018-02-10T09:10:17.848Z,25.07
2018-02-10T09:12:45.282Z,21.00
2018-02-10T09:15:12.733Z,23.60
2018-02-10T09:17:40.158Z,25.10
2018-02-10T09:20:07.593Z,24.60
2018-02-10T09:22:35.035Z,24.17
2018-02-10T09:25:03.235Z,23.20
2018-02-10T09:27:31.572Z,23.37
2018-02-10T09:29:58.999Z,25.37
2018-02-10T09:32:26.521Z,24.83
2018-02-10T09:34:53.959Z,24.37
2018-02-10T09:37:21.404Z,26.43
2018-02-10T09:39:48.856Z,21.10
2018-02-10T09:42:16.295Z,24.27
2018-02-10T09:44:43.755Z,22.80
2018-02-10T09:47:11.188Z,25.00
2018-02-10T09:49:38.638Z,24.80
2018-02-10T09:52:06.070Z,22.63
2018-02-10T09:54:33.636Z,24.27
2018-02-10T09:57:01.081Z,23.73
2018-02-10T09:59:29.302Z,23.93
2018-02-10T10:01:56.744Z,24.60
2018-02-10T10:04:24.175Z,22.67
2018-02-10T10:06:51.612Z,22.60
2018-02-10T10:09:19.819Z,24.13
2018-02-10T10:11:47.279Z,22.77
2018-02-10T10:14:14.731Z,24.77
2018-02-10T10:16:42.256Z,23.07
2018-02-10T10:19:09.698Z,22.80
2018-02-10T10:21:37.124Z,24.03
2018-02-10T10:24:04.578Z,23.17
2018-02-10T10:26:32.047Z,22.10
2018-02-10T10:28:59.504Z,22.13
2018-02-10T10:31:26.935Z,20.80
2018-02-10T10:33:54.372Z,24.40
2018-02-10T10:36:21.839Z,22.87
2018-02-10T10:38:49.291Z,23.43
2018-02-10T10:41:16.719Z,23.10
2018-02-10T10:43:44.157Z,20.43
2018-02-10T10:46:11.594Z,21.60
2018-02-10T10:48:39.055Z,22.47
2018-02-10T10:51:06.487Z,20.80
2018-02-10T10:53:33.939Z,22.43
2018-02-10T10:56:01.392Z,20.60
2018-02-10T10:58:29.031Z,20.50
2018-02-10T11:00:57.247Z,21.17
2018-02-10T11:03:24.812Z,20.73
2018-02-10T11:05:52.252Z,19.27
2018-02-10T11:08:19.699Z,19.93
2018-02-10T11:10:47.135Z,18.37
2018-02-10T11:13:15.353Z,19.87
2018-02-10T11:15:42.799Z,19.30
2018-02-10T11:18:10.240Z,19.50
2018-02-10T11:20:37.706Z,19.40
2018-02-10T11:23:05.155Z,19.43
2018-02-10T11:25:32.589Z,20.30
2018-02-10T11:28:00.041Z,17.33
2018-02-10T11:30:27.485Z,15.93
2018-02-10T11:32:54.951Z,17.60
2018-02-10T11:35:22.375Z,15.40
2018-02-10T11:37:49.882Z,18.27
2018-02-10T11:40:17.284Z,18.53
2018-02-10T11:42:44.819Z,18.10
2018-02-10T11:45:12.264Z,17.60
2018-02-10T11:47:40.474Z,17.80
2018-02-10T11:50:07.907Z,26.57
2018-02-10T11:52:36.704Z,20.07
2018-02-10T11:55:02.789Z,21.83
2018-02-10T11:57:30.247Z,16.87
2018-02-10T11:59:57.687Z,22.53
2018-02-10T12:02:25.159Z,18.10
2018-02-10T12:04:52.607Z,17.87
2018-02-10T12:07:20.051Z,21.73
2018-02-10T12:09:47.502Z,19.10
2018-02-10T12:12:14.954Z,19.53
2018-02-10T12:14:42.379Z,18.67
2018-02-10T12:17:09.828Z,18.03
2018-02-10T12:19:37.271Z,18.80
2018-02-10T12:22:04.707Z,17.83
2018-02-10T12:24:32.175Z,17.63
2018-02-10T12:26:59.639Z,15.47
2018-02-10T12:29:27.087Z,16.50
2018-02-10T12:31:54.536Z,16.53
2018-02-10T12:34:22.177Z,17.27
2018-02-10T12:36:49.618Z,14.23
2018-02-10T12:39:17.050Z,17.90
2018-02-10T12:41:44.519Z,19.10
2018-02-10T12:44:11.987Z,17.80
2018-02-10T12:46:39.419Z,18.57
2018-02-10T12:49:12.659Z,15.80
2018-02-10T12:51:40.104Z,15.50
2018-02-10T12:54:07.551Z,16.80
2018-02-10T12:56:34.991Z,19.93
2018-02-10T12:59:02.423Z,18.10
2018-02-10T13:01:29.872Z,19.93
2018-02-10T13:03:57.324Z,20.77
2018-02-10T13:06:24.751Z,18.03
2018-02-10T13:08:52.213Z,22.17
2018-02-10T13:11:19.710Z,21.40
2018-02-10T13:13:47.152Z,18.67
2018-02-10T13:16:14.608Z,21.50
2018-02-10T13:18:42.048Z,22.10
2018-02-10T13:21:09.515Z,23.17
2018-02-10T13:23:36.974Z,20.43
2018-02-10T13:26:04.410Z,22.97
2018-02-10T13:28:31.856Z,22.77
2018-02-10T13:30:59.288Z,22.37
2018-02-10T13:33:26.818Z,18.50
2018-02-10T13:35:55.055Z,22.80
2018-02-10T13:38:22.526Z,22.03
2018-02-10T13:40:49.959Z,21.73
2018-02-10T13:43:17.419Z,25.33
2018-02-10T13:45:44.873Z,20.50
2018-02-10T13:48:24.120Z,17.30
2018-02-10T13:50:51.564Z,20.07
2018-02-10T13:53:19.022Z,21.23
2018-02-10T13:55:47.483Z,19.33
2018-02-10T13:58:14.935Z,22.57
2018-02-10T14:00:42.395Z,20.37
2018-02-10T14:03:09.829Z,23.90
2018-02-10T14:05:37.276Z,22.03
2018-02-10T14:08:04.728Z,19.00
2018-02-10T14:10:32.183Z,21.13
2018-02-10T14:12:59.643Z,18.43
2018-02-10T14:15:27.091Z,16.90
2018-02-10T14:17:54.586Z,19.57
2018-02-10T14:20:21.995Z,21.10
2018-02-10T14:22:49.471Z,17.33
2018-02-10T14:25:16.911Z,18.07
2018-02-10T14:27:44.367Z,17.83
2018-02-10T14:30:11.818Z,17.60
2018-02-10T14:32:39.271Z,17.53
2018-02-10T14:35:06.708Z,18.47
2018-02-10T14:37:34.163Z,17.30
2018-02-10T14:40:01.621Z,18.07
2018-02-10T14:42:29.114Z,16.70
2018-02-10T14:44:56.546Z,16.80
2018-02-10T14:47:24.004Z,17.80
2018-02-10T14:49:51.448Z,17.33
2018-02-10T14:52:18.916Z,18.63
2018-02-10T14:54:46.368Z,19.70
2018-02-10T14:57:13.831Z,16.90
2018-02-10T14:59:41.445Z,18.67
2018-02-10T15:02:09.732Z,18.17
2018-02-10T15:04:37.959Z,18.00
2018-02-10T15:07:05.419Z,19.10
2018-02-10T15:09:32.883Z,17.97
2018-02-10T15:12:00.334Z,19.03
2018-02-10T15:14:27.780Z,20.73
2018-02-10T15:16:55.231Z,20.57
2018-02-10T15:19:22.676Z,20.37
2018-02-10T15:21:50.111Z,23.83
2018-02-10T15:24:17.800Z,22.83
2018-02-10T15:26:45.270Z,21.33
2018-02-10T15:29:12.715Z,19.00
2018-02-10T15:31:51.856Z,20.33
2018-02-10T15:34:31.093Z,19.80
2018-02-10T15:36:58.555Z,18.80
2018-02-10T15:39:25.999Z,17.00
2018-02-10T15:41:53.444Z,19.03
2018-02-10T15:44:21.082Z,18.73
2018-02-10T15:46:48.531Z,18.77
2018-02-10T15:49:15.978Z,17.03
2018-02-10T15:51:43.421Z,18.60
2018-02-10T15:54:10.843Z,20.97
2018-02-10T15:56:38.323Z,19.93
2018-02-10T15:59:05.813Z,20.30
2018-02-10T16:01:33.252Z,20.10
2018-02-10T16:04:00.707Z,19.17
2018-02-10T16:06:28.195Z,19.60
2018-02-10T16:08:55.639Z,21.30
2018-02-10T16:11:23.097Z,19.30
2018-02-10T16:13:50.529Z,21.33
2018-02-10T16:16:17.956Z,21.27
2018-02-10T16:18:45.423Z,20.80
2018-02-10T16:21:12.861Z,20.63
2018-02-10T16:23:40.296Z,20.27
2018-02-10T16:26:07.751Z,23.67
2018-02-10T16:28:35.311Z,20.90
2018-02-10T16:31:02.757Z,20.43
2018-02-10T16:33:30.974Z,20.80
2018-02-10T16:35:58.422Z,20.60
2018-02-10T16:38:25.846Z,22.13
2018-02-10T16:40:54.063Z,22.40
2018-02-10T16:43:21.528Z,20.37
2018-02-10T16:45:48.985Z,23.30
2018-02-10T16:48:17.343Z,23.23
2018-02-10T16:50:44.858Z,20.07
2018-02-10T16:53:12.306Z,21.47
2018-02-10T16:55:39.737Z,24.17
2018-02-10T16:58:07.192Z,22.23
2018-02-10T17:00:34.647Z,24.23
2018-02-10T17:03:02.092Z,21.70
2018-02-10T17:05:29.550Z,22.30
2018-02-10T17:07:57.063Z,22.62
2018-02-10T17:10:24.487Z,21.30
2018-02-10T17:12:51.984Z,22.57
2018-02-10T17:15:19.444Z,21.27
2018-02-10T17:17:46.863Z,21.30
2018-02-10T17:20:14.347Z,23.60
2018-02-10T17:22:41.819Z,32.33
2018-02-10T17:25:09.264Z,22.37
2018-02-10T17:27:37.484Z,22.10
2018-02-10T17:30:04.954Z,21.73
2018-02-10T17:32:32.431Z,22.60
2018-02-10T17:35:00.018Z,25.60
2018-02-10T17:37:27.527Z,25.90
2018-02-10T17:39:55.745Z,23.60
2018-02-10T17:42:23.974Z,23.70
2018-02-10T17:44:51.448Z,24.93
2018-02-10T17:47:18.907Z,24.43
2018-02-10T17:49:46.383Z,20.37
2018-02-10T17:52:13.836Z,24.93
2018-02-10T17:54:41.276Z,24.30
2018-02-10T17:57:08.731Z,25.70
2018-02-10T17:59:36.184Z,25.73
2018-02-10T18:02:03.649Z,24.50
2018-02-10T18:04:31.108Z,24.47
2018-02-10T18:06:58.612Z,24.60
2018-02-10T18:09:26.069Z,22.00
2018-02-10T18:11:53.526Z,23.43
2018-02-10T18:14:20.963Z,24.60
2018-02-10T18:16:48.418Z,23.60
2018-02-10T18:19:16.794Z,25.63
2018-02-10T18:21:44.205Z,24.10
2018-02-10T18:24:11.704Z,22.03
2018-02-10T18:26:39.131Z,24.90
2018-02-10T18:29:06.615Z,24.13
2018-02-10T18:31:34.035Z,25.27
2018-02-10T18:34:01.507Z,22.77
2018-02-10T18:36:28.944Z,22.80
2018-02-10T18:38:56.404Z,24.80
2018-02-10T18:41:23.832Z,23.70
2018-02-10T18:43:51.279Z,23.30
2018-02-10T18:46:18.740Z,20.20
2018-02-10T18:48:46.196Z,22.00
2018-02-10T18:51:14.399Z,20.20
2018-02-10T18:53:41.833Z,22.43
2018-02-10T18:56:09.284Z,21.07
2018-02-10T18:58:37.492Z,20.47
2018-02-10T19:01:04.935Z,19.20
2018-02-10T19:03:32.524Z,20.80
2018-02-10T19:06:00.165Z,22.90
2018-02-10T19:08:27.641Z,20.97
2018-02-10T19:10:55.075Z,24.30
2018-02-10T19:13:22.527Z,22.43
2018-02-10T19:15:49.987Z,22.75
2018-02-10T19:18:17.427Z,32.67
2018-02-10T19:20:44.879Z,20.30
2018-02-10T19:23:13.096Z,21.20
2018-02-10T19:25:40.546Z,21.10
2018-02-10T19:28:07.979Z,18.83
2018-02-10T19:30:35.459Z,19.73
2018-02-10T19:33:02.858Z,21.00
2018-02-10T19:35:30.325Z,20.97
2018-02-10T19:37:57.743Z,19.60
2018-02-10T19:40:25.196Z,17.37
2018-02-10T19:42:52.655Z,19.30
2018-02-10T19:45:20.103Z,17.80
2018-02-10T19:47:47.619Z,19.40
2018-02-10T19:50:15.069Z,16.73
2018-02-10T19:52:42.523Z,18.30
2018-02-10T19:55:09.942Z,16.50
2018-02-10T19:57:37.396Z,16.67
2018-02-10T20:00:04.834Z,19.63
2018-02-10T20:02:32.273Z,16.70
2018-02-10T20:04:59.741Z,16.67
2018-02-10T20:07:27.175Z,16.63
2018-02-10T20:09:55.426Z,15.23
2018-02-10T20:12:22.852Z,17.30
2018-02-10T20:14:50.319Z,15.85
2018-02-10T20:17:17.769Z,15.20
2018-02-10T20:19:45.207Z,14.70
2018-02-10T20:22:12.638Z,16.30
2018-02-10T20:24:40.863Z,14.90
2018-02-10T20:27:08.305Z,15.33
2018-02-10T20:29:35.743Z,16.67
2018-02-10T20:32:03.428Z,22.27
2018-02-10T20:34:30.858Z,16.60
2018-02-10T20:36:58.319Z,23.10
2018-02-10T20:39:25.802Z,22.37
2018-02-10T20:41:53.252Z,14.30
2018-02-10T20:44:20.711Z,15.82
2018-02-10T20:46:48.147Z,15.15
2018-02-10T20:49:15.586Z,14.77
2018-02-10T20:51:43.907Z,15.30
2018-02-10T20:54:11.427Z,14.63
2018-02-10T20:56:38.862Z,15.43
2018-02-10T20:59:06.312Z,15.57
2018-02-10T21:01:33.774Z,17.40
2018-02-10T21:04:01.233Z,22.80
2018-02-10T21:06:28.667Z,14.40
2018-02-10T21:08:56.136Z,15.63
2018-02-10T21:11:23.547Z,15.00
2018-02-10T21:13:51.003Z,14.60
2018-02-10T21:16:18.549Z,15.13
2018-02-10T21:18:45.980Z,13.87
2018-02-10T21:21:13.431Z,13.47
2018-02-10T21:23:40.860Z,14.47
2018-02-10T21:26:08.314Z,14.80
2018-02-10T21:28:35.774Z,15.53
2018-02-10T21:31:03.250Z,15.93
2018-02-10T21:33:30.671Z,14.30
2018-02-10T21:35:58.132Z,13.20
2018-02-10T21:38:25.666Z,13.32
2018-02-10T21:40:53.099Z,14.07
2018-02-10T21:43:20.548Z,14.07
2018-02-10T21:45:47.987Z,13.27
2018-02-10T21:48:15.419Z,13.90
2018-02-10T21:50:42.877Z,13.53
2018-02-10T21:53:10.354Z,14.83
2018-02-10T21:55:37.814Z,14.50
2018-02-10T21:58:05.259Z,14.87
2018-02-10T22:00:32.796Z,14.40
2018-02-10T22:03:00.282Z,14.13
2018-02-10T22:05:27.719Z,14.00
2018-02-10T22:07:55.152Z,15.07
2018-02-10T22:10:22.629Z,12.65
2018-02-10T22:12:50.058Z,16.03
2018-02-10T22:15:17.751Z,19.67
2018-02-10T22:17:45.196Z,15.20
2018-02-10T22:20:12.651Z,14.38
2018-02-10T22:22:40.215Z,14.45
2018-02-10T22:25:07.659Z,20.05
2018-02-10T22:27:35.116Z,14.60
2018-02-10T22:30:02.567Z,14.82
2018-02-10T22:32:30.026Z,15.20
2018-02-10T22:34:57.515Z,14.55
2018-02-10T22:37:24.945Z,13.95
2018-02-10T22:39:52.395Z,14.60
2018-02-10T22:42:19.849Z,14.48
2018-02-10T22:44:47.293Z,19.62
2018-02-10T22:47:14.749Z,13.23
2018-02-10T22:49:42.205Z,13.57
2018-02-10T22:52:09.662Z,13.17
2018-02-10T22:54:37.169Z,14.17
2018-02-10T22:57:04.602Z,14.60
2018-02-10T22:59:32.050Z,16.15
2018-02-10T23:01:59.510Z,16.15
2018-02-10T23:04:27.309Z,13.47
2018-02-10T23:06:54.755Z,12.95
2018-02-10T23:09:22.207Z,14.63
2018-02-10T23:11:49.657Z,18.65
2018-02-10T23:14:17.179Z,13.95
2018-02-10T23:16:44.620Z,12.80
2018-02-10T23:19:12.078Z,13.93
2018-02-10T23:21:39.533Z,12.82
2018-02-10T23:24:06.996Z,13.80
2018-02-10T23:26:34.464Z,12.80
2018-02-10T23:29:01.924Z,13.80
2018-02-10T23:31:29.368Z,12.03
2018-02-10T23:33:56.830Z,13.33
2018-02-10T23:36:24.453Z,13.48
2018-02-10T23:38:51.891Z,13.32
2018-02-10T23:41:19.334Z,16.20
2018-02-10T23:43:46.771Z,11.98
2018-02-10T23:46:14.996Z,13.82
2018-02-10T23:48:42.455Z,10.73
2018-02-10T23:51:09.923Z,16.20
2018-02-10T23:53:37.379Z,13.35
2018-02-10T23:56:04.814Z,11.23
2018-02-10T23:58:32.290Z,14.90
